sensor_id;sensor_type;location;lat;lon;timestamp;pressure;altitude;pressure_sealevel;temperature;humidity
54918;BME280;40818;50.562;7.454;2023-04-28T00:04:48;97467.25;;;9.29;72.51
54918;BME280;40818;50.562;7.454;2023-04-28T00:14:52;97465.91;;;9.23;74.94
54918;BME280;40818;50.562;7.454;2023-04-28T00:24:58;97453.78;;;9.23;74.30
54918;BME280;40818;50.562;7.454;2023-04-28T00:35:02;97443.47;;;9.09;80.35
54918;BME280;40818;50.562;7.454;2023-04-28T00:45:10;97440.75;;;8.98;79.86
54918;BME280;40818;50.562;7.454;2023-04-28T00:55:14;97421.69;;;8.71;88.41
54918;BME280;40818;50.562;7.454;2023-04-28T01:05:21;97399.22;;;8.43;94.42
54918;BME280;40818;50.562;7.454;2023-04-28T01:15:28;97398.97;;;8.33;94.61
54918;BME280;40818;50.562;7.454;2023-04-28T01:25:34;97391.16;;;8.20;100.00
54918;BME280;40818;50.562;7.454;2023-04-28T01:35:38;97378.41;;;7.89;100.00
54918;BME280;40818;50.562;7.454;2023-04-28T01:45:44;97340.00;;;7.68;100.00
54918;BME280;40818;50.562;7.454;2023-04-28T01:55:47;97360.69;;;7.97;100.00
54918;BME280;40818;50.562;7.454;2023-04-28T02:05:55;97357.06;;;8.14;100.00
54918;BME280;40818;50.562;7.454;2023-04-28T02:15:59;97355.25;;;8.16;100.00
54918;BME280;40818;50.562;7.454;2023-04-28T02:26:06;97350.53;;;7.94;100.00
54918;BME280;40818;50.562;7.454;2023-04-28T02:36:09;97346.59;;;7.88;100.00
54918;BME280;40818;50.562;7.454;2023-04-28T02:46:16;97338.63;;;7.91;100.00
54918;BME280;40818;50.562;7.454;2023-04-28T02:56:20;97317.31;;;7.44;100.00
54918;BME280;40818;50.562;7.454;2023-04-28T03:06:26;97314.91;;;7.41;100.00
54918;BME280;40818;50.562;7.454;2023-04-28T03:16:29;97300.75;;;7.18;100.00
54918;BME280;40818;50.562;7.454;2023-04-28T03:26:36;97284.66;;;7.14;100.00
54918;BME280;40818;50.562;7.454;2023-04-28T03:36:39;97275.91;;;7.17;100.00
54918;BME280;40818;50.562;7.454;2023-04-28T03:46:54;97267.66;;;7.10;100.00
54918;BME280;40818;50.562;7.454;2023-04-28T03:56:57;97250.53;;;7.09;100.00
54918;BME280;40818;50.562;7.454;2023-04-28T04:07:04;97242.69;;;7.11;100.00
54918;BME280;40818;50.562;7.454;2023-04-28T04:17:08;97238.28;;;7.13;100.00
54918;BME280;40818;50.562;7.454;2023-04-28T04:27:14;97247.22;;;7.22;100.00
54918;BME280;40818;50.562;7.454;2023-04-28T04:37:18;97228.47;;;7.18;100.00
54918;BME280;40818;50.562;7.454;2023-04-28T04:47:34;97214.84;;;7.16;100.00
54918;BME280;40818;50.562;7.454;2023-04-28T04:57:38;97227.84;;;7.14;100.00
54918;BME280;40818;50.562;7.454;2023-04-28T05:08:03;97227.09;;;6.98;100.00
54918;BME280;40818;50.562;7.454;2023-04-28T05:18:08;97222.66;;;6.86;100.00
54918;BME280;40818;50.562;7.454;2023-04-28T05:28:16;97237.22;;;6.87;100.00
54918;BME280;40818;50.562;7.454;2023-04-28T05:38:20;97248.56;;;6.98;100.00
54918;BME280;40818;50.562;7.454;2023-04-28T05:48:27;97241.00;;;6.95;100.00
54918;BME280;40818;50.562;7.454;2023-04-28T05:58:31;97240.44;;;6.90;100.00
54918;BME280;40818;50.562;7.454;2023-04-28T06:08:39;97239.41;;;6.78;100.00
54918;BME280;40818;50.562;7.454;2023-04-28T06:18:42;97248.97;;;6.76;100.00
54918;BME280;40818;50.562;7.454;2023-04-28T06:28:49;97222.72;;;6.70;100.00
54918;BME280;40818;50.562;7.454;2023-04-28T06:38:53;97207.16;;;6.86;100.00
54918;BME280;40818;50.562;7.454;2023-04-28T06:48:59;97231.25;;;7.00;100.00
54918;BME280;40818;50.562;7.454;2023-04-28T06:59:02;97230.97;;;7.48;100.00
54918;BME280;40818;50.562;7.454;2023-04-28T07:09:09;97234.69;;;7.86;100.00
54918;BME280;40818;50.562;7.454;2023-04-28T07:19:12;97236.34;;;8.29;100.00
54918;BME280;40818;50.562;7.454;2023-04-28T07:29:18;97228.50;;;8.70;100.00
54918;BME280;40818;50.562;7.454;2023-04-28T07:39:22;97245.84;;;9.09;100.00
54918;BME280;40818;50.562;7.454;2023-04-28T07:49:28;97249.16;;;9.23;100.00
54918;BME280;40818;50.562;7.454;2023-04-28T07:59:32;97255.47;;;9.45;100.00
54918;BME280;40818;50.562;7.454;2023-04-28T08:09:39;97250.25;;;9.71;100.00
54918;BME280;40818;50.562;7.454;2023-04-28T08:19:46;97245.25;;;10.18;100.00
54918;BME280;40818;50.562;7.454;2023-04-28T08:29:52;97249.63;;;11.24;100.00
54918;BME280;40818;50.562;7.454;2023-04-28T08:39:56;97261.22;;;12.54;100.00
54918;BME280;40818;50.562;7.454;2023-04-28T08:50:07;97274.44;;;14.09;100.00
54918;BME280;40818;50.562;7.454;2023-04-28T09:00:12;97273.91;;;14.44;100.00
54918;BME280;40818;50.562;7.454;2023-04-28T09:10:20;97278.63;;;14.41;100.00
54918;BME280;40818;50.562;7.454;2023-04-28T09:20:25;97263.31;;;14.36;100.00
54918;BME280;40818;50.562;7.454;2023-04-28T09:30:40;97266.75;;;14.17;100.00
54918;BME280;40818;50.562;7.454;2023-04-28T09:40:52;97264.56;;;14.51;100.00
54918;BME280;40818;50.562;7.454;2023-04-28T09:50:58;97260.56;;;14.38;100.00
54918;BME280;40818;50.562;7.454;2023-04-28T10:01:04;97248.13;;;14.71;100.00
54918;BME280;40818;50.562;7.454;2023-04-28T10:11:13;97244.56;;;14.72;100.00
54918;BME280;40818;50.562;7.454;2023-04-28T10:21:18;97245.06;;;14.56;100.00
54918;BME280;40818;50.562;7.454;2023-04-28T10:31:26;97240.13;;;14.92;100.00
54918;BME280;40818;50.562;7.454;2023-04-28T10:41:33;97227.78;;;15.41;100.00
54918;BME280;40818;50.562;7.454;2023-04-28T10:51:39;97221.19;;;16.75;100.00
54918;BME280;40818;50.562;7.454;2023-04-28T11:01:42;97205.56;;;18.21;99.22
54918;BME280;40818;50.562;7.454;2023-04-28T11:12:07;97197.22;;;19.64;91.33
54918;BME280;40818;50.562;7.454;2023-04-28T11:22:15;97190.50;;;21.09;85.07
54918;BME280;40818;50.562;7.454;2023-04-28T11:32:28;97179.38;;;22.10;78.00
54918;BME280;40818;50.562;7.454;2023-04-28T11:42:32;97190.59;;;21.45;78.08
54918;BME280;40818;50.562;7.454;2023-04-28T11:52:47;97190.25;;;22.00;80.41
54918;BME280;40818;50.562;7.454;2023-04-28T12:02:50;97191.63;;;21.96;72.89
54918;BME280;40818;50.562;7.454;2023-04-28T12:12:56;97204.03;;;21.21;72.88
54918;BME280;40818;50.562;7.454;2023-04-28T12:23:00;97188.97;;;20.53;76.79
54918;BME280;40818;50.562;7.454;2023-04-28T12:33:20;97180.47;;;19.57;81.98
54918;BME280;40818;50.562;7.454;2023-04-28T12:43:24;97188.69;;;20.71;82.50
54918;BME280;40818;50.562;7.454;2023-04-28T12:53:31;97194.22;;;19.67;86.42
54918;BME280;40818;50.562;7.454;2023-04-28T13:03:35;97184.88;;;20.04;89.46
54918;BME280;40818;50.562;7.454;2023-04-28T13:13:41;97167.09;;;20.44;92.21
54918;BME280;40818;50.562;7.454;2023-04-28T13:23:44;97160.91;;;20.84;85.41
54918;BME280;40818;50.562;7.454;2023-04-28T13:33:50;97135.53;;;21.27;84.96
54918;BME280;40818;50.562;7.454;2023-04-28T13:43:54;97135.75;;;21.77;75.64
54918;BME280;40818;50.562;7.454;2023-04-28T13:54:00;97128.53;;;23.36;70.63
54918;BME280;40818;50.562;7.454;2023-04-28T14:04:07;97116.91;;;23.02;67.05
54918;BME280;40818;50.562;7.454;2023-04-28T14:14:13;97102.28;;;22.28;71.34
54918;BME280;40818;50.562;7.454;2023-04-28T14:24:17;97094.94;;;22.02;69.46
54918;BME280;40818;50.562;7.454;2023-04-28T14:34:23;97091.88;;;21.98;72.67
54918;BME280;40818;50.562;7.454;2023-04-28T14:44:27;97074.66;;;21.65;71.90
54918;BME280;40818;50.562;7.454;2023-04-28T14:54:33;97083.38;;;21.29;74.06
54918;BME280;40818;50.562;7.454;2023-04-28T15:04:37;97082.84;;;21.04;75.79
54918;BME280;40818;50.562;7.454;2023-04-28T15:14:43;97104.88;;;21.11;73.16
54918;BME280;40818;50.562;7.454;2023-04-28T15:24:46;97105.66;;;20.06;78.26
54918;BME280;40818;50.562;7.454;2023-04-28T15:34:53;97111.50;;;20.16;84.77
54918;BME280;40818;50.562;7.454;2023-04-28T15:44:56;97129.81;;;18.82;99.11
54918;BME280;40818;50.562;7.454;2023-04-28T15:55:05;97118.97;;;18.85;97.12
54918;BME280;40818;50.562;7.454;2023-04-28T16:05:10;97116.84;;;18.81;98.57
54918;BME280;40818;50.562;7.454;2023-04-28T16:15:16;97120.31;;;18.65;100.00
54918;BME280;40818;50.562;7.454;2023-04-28T16:25:19;97128.72;;;18.35;100.00
54918;BME280;40818;50.562;7.454;2023-04-28T16:35:25;97125.41;;;18.00;100.00
54918;BME280;40818;50.562;7.454;2023-04-28T16:45:29;97141.31;;;17.48;100.00
54918;BME280;40818;50.562;7.454;2023-04-28T16:55:36;97160.88;;;17.19;100.00
54918;BME280;40818;50.562;7.454;2023-04-28T17:05:39;97167.63;;;16.95;100.00
54918;BME280;40818;50.562;7.454;2023-04-28T17:15:52;97178.22;;;16.67;100.00
54918;BME280;40818;50.562;7.454;2023-04-28T17:25:57;97191.94;;;16.25;100.00
54918;BME280;40818;50.562;7.454;2023-04-28T17:36:05;97205.81;;;15.90;100.00
54918;BME280;40818;50.562;7.454;2023-04-28T17:46:08;97228.44;;;15.81;100.00
54918;BME280;40818;50.562;7.454;2023-04-28T17:56:16;97237.19;;;15.24;100.00
54918;BME280;40818;50.562;7.454;2023-04-28T18:06:20;97256.94;;;14.89;100.00
54918;BME280;40818;50.562;7.454;2023-04-28T18:16:26;97268.47;;;14.57;100.00
54918;BME280;40818;50.562;7.454;2023-04-28T18:26:30;97273.50;;;14.29;100.00
54918;BME280;40818;50.562;7.454;2023-04-28T18:36:36;97291.41;;;13.93;100.00
54918;BME280;40818;50.562;7.454;2023-04-28T18:46:39;97301.69;;;13.54;100.00
54918;BME280;40818;50.562;7.454;2023-04-28T18:56:45;97314.25;;;13.28;100.00
54918;BME280;40818;50.562;7.454;2023-04-28T19:06:49;97331.13;;;13.24;100.00
54918;BME280;40818;50.562;7.454;2023-04-28T19:16:55;97329.38;;;13.13;100.00
54918;BME280;40818;50.562;7.454;2023-04-28T19:26:59;97346.34;;;13.07;100.00
54918;BME280;40818;50.562;7.454;2023-04-28T19:37:05;97355.94;;;13.07;100.00
54918;BME280;40818;50.562;7.454;2023-04-28T19:47:10;97357.59;;;13.08;100.00
54918;BME280;40818;50.562;7.454;2023-04-28T19:57:17;97370.75;;;13.06;100.00
54918;BME280;40818;50.562;7.454;2023-04-28T20:07:21;97361.41;;;13.04;100.00
54918;BME280;40818;50.562;7.454;2023-04-28T20:17:27;97363.31;;;13.02;100.00
54918;BME280;40818;50.562;7.454;2023-04-28T20:27:31;97366.41;;;12.95;100.00
54918;BME280;40818;50.562;7.454;2023-04-28T20:37:37;97370.50;;;12.77;100.00
54918;BME280;40818;50.562;7.454;2023-04-28T20:47:41;97372.06;;;12.68;100.00
54918;BME280;40818;50.562;7.454;2023-04-28T20:57:47;97370.91;;;12.61;100.00
54918;BME280;40818;50.562;7.454;2023-04-28T21:07:50;97374.34;;;12.61;100.00
54918;BME280;40818;50.562;7.454;2023-04-28T21:17:56;97374.78;;;12.55;100.00
54918;BME280;40818;50.562;7.454;2023-04-28T21:28:00;97376.03;;;12.51;100.00
54918;BME280;40818;50.562;7.454;2023-04-28T21:38:05;97383.81;;;12.40;100.00
54918;BME280;40818;50.562;7.454;2023-04-28T21:48:10;97379.34;;;12.31;100.00
54918;BME280;40818;50.562;7.454;2023-04-28T21:58:16;97377.59;;;12.20;100.00
54918;BME280;40818;50.562;7.454;2023-04-28T22:08:20;97371.53;;;11.97;100.00
54918;BME280;40818;50.562;7.454;2023-04-28T22:18:26;97372.00;;;11.79;100.00
54918;BME280;40818;50.562;7.454;2023-04-28T22:28:29;97380.59;;;11.57;100.00
54918;BME280;40818;50.562;7.454;2023-04-28T22:38:35;97385.41;;;11.50;100.00
54918;BME280;40818;50.562;7.454;2023-04-28T22:48:39;97390.59;;;11.50;100.00
54918;BME280;40818;50.562;7.454;2023-04-28T22:58:45;97387.66;;;11.55;100.00
54918;BME280;40818;50.562;7.454;2023-04-28T23:08:48;97393.91;;;11.52;100.00
54918;BME280;40818;50.562;7.454;2023-04-28T23:18:54;97391.09;;;11.55;100.00
54918;BME280;40818;50.562;7.454;2023-04-28T23:28:58;97400.03;;;11.40;100.00
54918;BME280;40818;50.562;7.454;2023-04-28T23:39:03;97402.50;;;11.30;100.00
54918;BME280;40818;50.562;7.454;2023-04-28T23:49:07;97406.84;;;11.30;100.00
54918;BME280;40818;50.562;7.454;2023-04-28T23:59:13;97402.38;;;11.32;100.00
